Time;durP1;ratioP1;P1;durP2;ratioP2;P2;SDS_P1;SDS_P2;PMS_P1;PMS_P2;Temp;Humidity;BMP_temperature;BMP_pressure;BME280_temperature;BME280_humidity;BME280_pressure;Samples;Min_cycle;Max_cycle;Signal;HPM_P1;HPM_P2
2022/11/14 00:01:37;;;;;;;;;;;7.60;96.40;;;;;;5059803;28;19928;-73
2022/11/14 00:04:04;;;;;;;;;;;7.60;96.40;;;;;;5059228;28;19936;-73
2022/11/14 00:06:31;;;;;;;;;;;7.60;96.40;;;;;;5056768;28;20592;-73
2022/11/14 00:09:00;;;;;;;;;;;7.60;96.40;;;;;;5059298;28;19928;-74
2022/11/14 00:11:26;;;;;;;;;;;7.60;96.40;;;;;;5059205;28;19935;-73
2022/11/14 00:13:53;;;;;;;;;;;7.60;96.40;;;;;;5058367;28;19932;-72
2022/11/14 00:16:19;;;;;;;;;;;7.50;96.40;;;;;;5067399;28;19928;-75
2022/11/14 00:18:46;;;;;;;;;;;7.60;96.40;;;;;;5073718;28;20651;-73
2022/11/14 00:21:12;;;;;;;;;;;7.60;96.40;;;;;;5071232;28;19935;-73
2022/11/14 00:23:39;;;;;;;;;;;7.60;96.40;;;;;;5079986;28;19947;-73
2022/11/14 00:26:07;;;;;;;;;;;7.60;96.40;;;;;;5085125;28;19928;-73
2022/11/14 00:28:33;;;;;;;;;;;7.50;96.40;;;;;;5080866;28;19928;-73
2022/11/14 00:31:00;;;;;;;;;;;7.60;96.50;;;;;;5080056;28;19932;-73
2022/11/14 00:33:26;;;;;;;;;;;7.60;96.50;;;;;;5075802;28;20346;-73
2022/11/14 00:35:54;;;;;;;;;;;7.60;96.50;;;;;;5079164;28;20519;-73
2022/11/14 00:38:21;;;;;;;;;;;7.60;96.50;;;;;;5071312;28;19930;-73
2022/11/14 00:40:48;;;;;;;;;;;7.50;96.40;;;;;;5078008;28;19928;-73
2022/11/14 00:43:16;;;;;;;;;;;7.60;96.40;;;;;;5078506;28;19928;-73
2022/11/14 00:45:43;;;;;;;;;;;7.50;96.40;;;;;;5072977;28;19936;-73
2022/11/14 00:48:09;;;;;;;;;;;7.50;96.40;;;;;;5057660;28;19932;-73
2022/11/14 00:50:36;;;;;;;;;;;7.60;96.50;;;;;;5062420;28;19929;-73
2022/11/14 00:53:03;;;;;;;;;;;7.60;96.50;;;;;;5063422;28;19932;-73
2022/11/14 00:55:30;;;;;;;;;;;7.60;96.50;;;;;;5060784;28;20392;-73
2022/11/14 00:57:56;;;;;;;;;;;7.50;96.50;;;;;;5060391;28;19980;-73
2022/11/14 01:00:24;;;;;;;;;;;7.50;96.50;;;;;;5065025;28;19959;-73
2022/11/14 01:02:51;;;;;;;;;;;7.50;96.50;;;;;;5078522;28;19932;-73
2022/11/14 01:05:17;;;;;;;;;;;7.60;96.50;;;;;;5079224;28;19975;-72
2022/11/14 01:07:44;;;;;;;;;;;7.50;96.50;;;;;;5075788;28;20374;-73
2022/11/14 01:10:10;;;;;;;;;;;7.50;96.50;;;;;;5078908;28;20447;-73
2022/11/14 01:12:37;;;;;;;;;;;7.50;96.50;;;;;;5077010;28;19931;-73
2022/11/14 01:15:03;;;;;;;;;;;7.50;96.50;;;;;;5077514;28;19935;-73
2022/11/14 01:17:31;;;;;;;;;;;7.50;96.50;;;;;;5080849;28;20343;-73
2022/11/14 01:19:58;;;;;;;;;;;7.50;96.50;;;;;;5075888;28;19928;-73
2022/11/14 01:22:25;;;;;;;;;;;7.50;96.50;;;;;;5073575;28;19928;-72
2022/11/14 01:24:51;;;;;;;;;;;7.50;96.50;;;;;;5082391;28;19924;-74
2022/11/14 01:27:18;;;;;;;;;;;7.50;96.50;;;;;;5080791;28;19981;-73
2022/11/14 01:29:44;;;;;;;;;;;7.50;96.50;;;;;;5078777;28;19939;-73
2022/11/14 01:32:11;;;;;;;;;;;7.50;96.50;;;;;;5080129;28;19928;-73
2022/11/14 01:34:39;;;;;;;;;;;7.50;96.50;;;;;;5081844;28;20057;-73
2022/11/14 01:37:05;;;;;;;;;;;7.50;96.50;;;;;;5083280;28;19932;-73
2022/11/14 01:39:32;;;;;;;;;;;7.50;96.50;;;;;;5081584;28;19936;-73
2022/11/14 01:41:58;;;;;;;;;;;7.50;96.50;;;;;;5083991;28;19928;-74
2022/11/14 01:44:45;;;;;;;;;;;7.50;96.50;;;;;;5076695;28;19928;-73
2022/11/14 01:47:13;;;;;;;;;;;7.50;96.60;;;;;;5077718;28;19935;-74
2022/11/14 01:49:43;;;;;;;;;;;7.50;96.60;;;;;;5080793;28;19928;-73
2022/11/14 01:52:11;;;;;;;;;;;7.50;96.50;;;;;;5080749;28;19928;-73
2022/11/14 01:54:41;;;;;;;;;;;7.50;96.50;;;;;;5076568;28;19928;-73
2022/11/14 01:57:08;;;;;;;;;;;7.50;96.50;;;;;;5083427;28;19936;-73
2022/11/14 01:59:36;;;;;;;;;;;7.50;96.50;;;;;;5080761;28;19928;-73
2022/11/14 02:02:06;;;;;;;;;;;7.50;96.50;;;;;;5072835;28;19940;-74
2022/11/14 02:04:34;;;;;;;;;;;7.40;96.50;;;;;;5079367;28;19935;-73
2022/11/14 02:07:03;;;;;;;;;;;7.50;96.50;;;;;;5076168;28;19928;-73
2022/11/14 02:09:31;;;;;;;;;;;7.50;96.50;;;;;;5078834;28;20375;-73
2022/11/14 02:12:00;;;;;;;;;;;7.50;96.50;;;;;;5081703;28;19928;-74
2022/11/14 02:14:27;;;;;;;;;;;7.50;96.50;;;;;;5076298;28;20311;-73
2022/11/14 02:16:53;;;;;;;;;;;7.40;96.40;;;;;;5075760;28;19935;-73
2022/11/14 02:19:20;;;;;;;;;;;7.50;96.50;;;;;;5076827;28;20456;-74
2022/11/14 02:21:48;;;;;;;;;;;7.40;96.40;;;;;;5077386;28;19951;-74
2022/11/14 02:24:15;;;;;;;;;;;7.40;96.40;;;;;;5082601;28;20743;-74
2022/11/14 02:26:42;;;;;;;;;;;7.40;96.50;;;;;;5082614;28;19928;-73
2022/11/14 02:29:09;;;;;;;;;;;7.50;96.50;;;;;;5077654;28;20268;-73
2022/11/14 02:31:36;;;;;;;;;;;7.40;96.50;;;;;;5078813;28;20316;-73
2022/11/14 02:34:03;;;;;;;;;;;7.40;96.50;;;;;;5071809;28;19935;-74
2022/11/14 02:36:29;;;;;;;;;;;7.40;96.50;;;;;;5080513;28;19924;-73
2022/11/14 02:38:57;;;;;;;;;;;7.40;96.50;;;;;;5075018;28;19935;-74
2022/11/14 02:41:24;;;;;;;;;;;7.40;96.80;;;;;;5079686;28;19928;-74
2022/11/14 02:43:50;;;;;;;;;;;7.40;96.50;;;;;;5076676;28;19932;-74
2022/11/14 02:46:17;;;;;;;;;;;7.40;96.50;;;;;;5072297;28;19928;-73
2022/11/14 02:48:43;;;;;;;;;;;7.40;96.50;;;;;;5076959;28;19941;-73
2022/11/14 02:51:10;;;;;;;;;;;7.40;96.50;;;;;;5080975;28;19936;-74
2022/11/14 02:53:36;;;;;;;;;;;7.40;96.50;;;;;;5076480;28;19932;-75
2022/11/14 02:56:05;;;;;;;;;;;7.40;96.50;;;;;;5078433;28;19939;-73
2022/11/14 02:58:31;;;;;;;;;;;7.40;96.50;;;;;;5073453;28;19928;-73
2022/11/14 03:00:58;;;;;;;;;;;7.40;96.50;;;;;;5075857;28;19928;-74
2022/11/14 03:03:24;;;;;;;;;;;7.40;96.50;;;;;;5074001;28;19928;-73
2022/11/14 03:05:52;;;;;;;;;;;7.40;96.50;;;;;;5074603;28;19931;-74
2022/11/14 03:08:18;;;;;;;;;;;7.40;96.50;;;;;;5073071;28;20055;-74
2022/11/14 03:10:45;;;;;;;;;;;7.40;96.60;;;;;;5069639;28;19932;-73
2022/11/14 03:13:13;;;;;;;;;;;7.40;96.60;;;;;;5069869;28;19951;-74
2022/11/14 03:15:40;;;;;;;;;;;7.40;96.60;;;;;;5078855;28;19928;-73
2022/11/14 03:18:06;;;;;;;;;;;7.40;96.60;;;;;;5076277;28;19928;-73
2022/11/14 03:20:33;;;;;;;;;;;7.40;96.60;;;;;;5078540;28;19935;-73
2022/11/14 03:23:00;;;;;;;;;;;7.40;96.60;;;;;;5073167;28;20101;-74
2022/11/14 03:25:26;;;;;;;;;;;7.30;96.50;;;;;;5078784;28;19939;-73
2022/11/14 03:27:53;;;;;;;;;;;7.40;96.60;;;;;;5081057;28;19935;-74
2022/11/14 03:30:21;;;;;;;;;;;7.40;96.60;;;;;;5078511;28;19932;-74
2022/11/14 03:32:47;;;;;;;;;;;7.40;96.60;;;;;;5079281;28;19931;-74
2022/11/14 03:35:14;;;;;;;;;;;7.40;96.60;;;;;;5081389;28;19928;-74
2022/11/14 03:37:41;;;;;;;;;;;7.40;96.60;;;;;;5081332;28;20388;-74
2022/11/14 03:40:09;;;;;;;;;;;7.40;96.70;;;;;;5079051;28;20196;-74
2022/11/14 03:42:36;;;;;;;;;;;7.40;96.70;;;;;;5080380;28;19970;-74
2022/11/14 03:45:02;;;;;;;;;;;7.40;96.70;;;;;;5077091;28;19928;-74
2022/11/14 03:47:30;;;;;;;;;;;7.40;96.70;;;;;;5076240;28;19928;-75
2022/11/14 03:49:57;;;;;;;;;;;7.40;96.70;;;;;;5074441;28;19967;-74
2022/11/14 03:52:24;;;;;;;;;;;7.30;96.60;;;;;;5077541;28;19928;-74
2022/11/14 03:54:51;;;;;;;;;;;7.40;96.70;;;;;;5079164;28;19935;-74
2022/11/14 03:57:18;;;;;;;;;;;7.30;96.70;;;;;;5075428;28;19932;-74
2022/11/14 03:59:44;;;;;;;;;;;7.40;96.70;;;;;;5077877;28;19939;-73
2022/11/14 04:02:11;;;;;;;;;;;7.30;96.70;;;;;;5077635;28;20404;-73
2022/11/14 04:04:38;;;;;;;;;;;7.30;96.70;;;;;;5075074;28;19951;-74
2022/11/14 04:07:05;;;;;;;;;;;7.30;96.70;;;;;;5073124;28;19932;-73
2022/11/14 04:09:32;;;;;;;;;;;7.40;96.70;;;;;;5075562;28;19935;-74
2022/11/14 04:11:58;;;;;;;;;;;7.40;96.70;;;;;;5073509;28;19932;-75
2022/11/14 04:14:25;;;;;;;;;;;7.40;96.70;;;;;;5074827;28;19931;-73
2022/11/14 04:16:51;;;;;;;;;;;7.40;96.70;;;;;;5063553;28;19933;-74
2022/11/14 04:19:18;;;;;;;;;;;7.30;96.60;;;;;;5053129;28;19932;-73
2022/11/14 04:21:46;;;;;;;;;;;7.40;96.70;;;;;;5056705;28;19932;-73
2022/11/14 04:24:13;;;;;;;;;;;7.30;96.60;;;;;;5062321;28;19924;-74
2022/11/14 04:26:39;;;;;;;;;;;7.40;96.70;;;;;;5066103;28;20582;-73
2022/11/14 04:29:06;;;;;;;;;;;7.40;96.60;;;;;;5066049;28;20494;-73
2022/11/14 04:31:32;;;;;;;;;;;7.40;96.60;;;;;;5072808;28;19928;-73
2022/11/14 04:33:59;;;;;;;;;;;7.40;96.60;;;;;;5078897;28;19935;-76
2022/11/14 04:36:25;;;;;;;;;;;7.40;96.60;;;;;;5081649;28;20388;-73
2022/11/14 04:38:53;;;;;;;;;;;7.30;96.60;;;;;;5083843;28;19935;-73
2022/11/14 04:41:20;;;;;;;;;;;7.30;96.90;;;;;;5080444;28;19924;-74
2022/11/14 04:43:46;;;;;;;;;;;7.30;96.50;;;;;;5076591;28;19929;-74
2022/11/14 04:46:13;;;;;;;;;;;7.30;96.50;;;;;;5068775;28;19928;-74
2022/11/14 04:48:39;;;;;;;;;;;7.30;96.50;;;;;;5058680;28;19932;-74
2022/11/14 04:51:06;;;;;;;;;;;7.30;96.40;;;;;;5062398;28;19928;-73
2022/11/14 04:53:32;;;;;;;;;;;7.30;96.50;;;;;;5065379;28;19925;-74
2022/11/14 04:56:00;;;;;;;;;;;7.30;96.50;;;;;;5060209;28;20368;-73
2022/11/14 04:58:27;;;;;;;;;;;7.30;96.40;;;;;;5060192;28;19935;-73
2022/11/14 05:00:56;;;;;;;;;;;7.30;96.50;;;;;;5062904;28;19928;-74
2022/11/14 05:03:23;;;;;;;;;;;7.30;96.50;;;;;;5077458;28;20022;-73
2022/11/14 05:05:49;;;;;;;;;;;7.30;96.50;;;;;;5081083;28;19928;-75
2022/11/14 05:08:16;;;;;;;;;;;7.30;96.50;;;;;;5073532;28;19932;-74
2022/11/14 05:10:43;;;;;;;;;;;7.30;96.50;;;;;;5080551;28;19936;-73
2022/11/14 05:13:11;;;;;;;;;;;7.30;96.50;;;;;;5075217;28;20051;-74
2022/11/14 05:15:37;;;;;;;;;;;7.30;96.50;;;;;;5077592;28;19928;-74
2022/11/14 05:18:04;;;;;;;;;;;7.30;96.40;;;;;;5074876;28;19935;-75
2022/11/14 05:20:31;;;;;;;;;;;7.30;96.50;;;;;;5076956;28;19928;-73
2022/11/14 05:22:57;;;;;;;;;;;7.30;96.40;;;;;;5075875;28;20462;-74
2022/11/14 05:25:24;;;;;;;;;;;7.30;96.40;;;;;;5074546;28;19928;-73
2022/11/14 05:27:51;;;;;;;;;;;7.30;96.50;;;;;;5078425;28;20373;-74
2022/11/14 05:30:19;;;;;;;;;;;7.30;96.40;;;;;;5081304;28;19979;-74
2022/11/14 05:32:45;;;;;;;;;;;7.30;96.40;;;;;;5083682;28;19939;-73
2022/11/14 05:35:12;;;;;;;;;;;7.30;96.70;;;;;;5078040;28;19928;-73
2022/11/14 05:37:38;;;;;;;;;;;7.30;96.30;;;;;;5074852;28;19928;-73
2022/11/14 05:40:05;;;;;;;;;;;7.30;96.40;;;;;;5076459;28;19928;-73
2022/11/14 05:42:32;;;;;;;;;;;7.20;96.30;;;;;;5080314;28;19935;-72
2022/11/14 05:44:59;;;;;;;;;;;7.30;96.40;;;;;;5077826;28;19935;-72
2022/11/14 05:47:26;;;;;;;;;;;7.20;96.30;;;;;;5080977;28;19928;-74
2022/11/14 05:49:53;;;;;;;;;;;7.30;96.30;;;;;;5076416;28;20383;-72
2022/11/14 05:52:20;;;;;;;;;;;7.30;96.30;;;;;;5075922;28;20643;-73
2022/11/14 05:54:46;;;;;;;;;;;7.20;96.30;;;;;;5080085;28;19924;-74
2022/11/14 05:57:13;;;;;;;;;;;7.20;96.30;;;;;;5077075;28;20179;-73
2022/11/14 05:59:39;;;;;;;;;;;7.20;96.30;;;;;;5076221;28;20006;-73
2022/11/14 06:02:06;;;;;;;;;;;7.20;96.00;;;;;;5078079;27;19928;-73
2022/11/14 06:04:34;;;;;;;;;;;7.20;95.80;;;;;;5075928;28;19928;-73
2022/11/14 06:07:00;;;;;;;;;;;7.10;96.00;;;;;;5075365;28;19935;-73
2022/11/14 06:09:27;;;;;;;;;;;7.10;96.20;;;;;;5079836;28;19928;-72
2022/11/14 06:11:53;;;;;;;;;;;7.10;96.30;;;;;;5082682;28;20014;-72
2022/11/14 06:14:20;;;;;;;;;;;7.10;96.30;;;;;;5079129;28;20423;-73
2022/11/14 06:16:47;;;;;;;;;;;7.20;96.30;;;;;;5075292;28;20407;-73
2022/11/14 06:19:13;;;;;;;;;;;7.10;96.20;;;;;;5072866;28;19939;-72
2022/11/14 06:21:41;;;;;;;;;;;7.20;96.30;;;;;;5075108;28;20607;-72
2022/11/14 06:24:08;;;;;;;;;;;7.10;96.30;;;;;;5078810;28;19931;-73
2022/11/14 06:26:34;;;;;;;;;;;7.20;96.30;;;;;;5075759;28;20340;-73
2022/11/14 06:29:01;;;;;;;;;;;7.20;96.30;;;;;;5078241;28;19932;-73
2022/11/14 06:31:28;;;;;;;;;;;7.20;96.30;;;;;;5065482;28;19971;-72
2022/11/14 06:33:55;;;;;;;;;;;7.20;96.30;;;;;;5055919;28;20663;-73
2022/11/14 06:36:22;;;;;;;;;;;7.20;96.20;;;;;;5062175;28;19932;-73
2022/11/14 06:38:50;;;;;;;;;;;7.20;96.20;;;;;;5059852;28;19932;-72
2022/11/14 06:41:18;;;;;;;;;;;7.20;96.10;;;;;;5063021;28;19936;-73
2022/11/14 06:43:45;;;;;;;;;;;7.20;96.20;;;;;;5059185;28;20597;-72
2022/11/14 06:46:13;;;;;;;;;;;7.20;96.20;;;;;;5069322;28;19936;-72
2022/11/14 06:48:40;;;;;;;;;;;7.20;96.20;;;;;;5076979;28;19930;-72
2022/11/14 06:51:06;;;;;;;;;;;7.20;96.20;;;;;;5077025;28;19940;-71
2022/11/14 06:53:34;;;;;;;;;;;7.20;96.20;;;;;;5075668;28;19936;-72
2022/11/14 06:56:03;;;;;;;;;;;7.20;96.20;;;;;;5072035;28;19935;-72
2022/11/14 06:58:30;;;;;;;;;;;7.10;96.20;;;;;;5076879;28;19935;-73
2022/11/14 07:00:57;;;;;;;;;;;7.10;96.20;;;;;;5067384;28;19932;-72
2022/11/14 07:03:23;;;;;;;;;;;7.20;96.20;;;;;;5058513;28;19972;-72
2022/11/14 07:05:50;;;;;;;;;;;7.10;96.20;;;;;;5061978;28;20005;-73
2022/11/14 07:08:17;;;;;;;;;;;7.10;96.20;;;;;;5053767;28;19924;-73
2022/11/14 07:10:43;;;;;;;;;;;7.10;96.20;;;;;;5056650;28;19932;-72
2022/11/14 07:13:11;;;;;;;;;;;7.10;96.20;;;;;;5059438;28;20315;-72
2022/11/14 07:15:38;;;;;;;;;;;7.10;96.20;;;;;;5060930;28;19932;-72
2022/11/14 07:18:05;;;;;;;;;;;7.10;96.20;;;;;;5079925;28;20355;-73
2022/11/14 07:20:31;;;;;;;;;;;7.10;96.10;;;;;;5076838;28;19935;-72
2022/11/14 07:22:58;;;;;;;;;;;7.10;96.20;;;;;;5074203;28;19932;-73
2022/11/14 07:25:24;;;;;;;;;;;7.10;96.20;;;;;;5074783;28;20007;-72
2022/11/14 07:27:51;;;;;;;;;;;7.10;96.20;;;;;;5083850;28;19924;-73
2022/11/14 07:30:19;;;;;;;;;;;7.00;96.20;;;;;;5076024;28;19936;-72
2022/11/14 07:32:46;;;;;;;;;;;7.00;96.20;;;;;;5081083;28;19935;-73
2022/11/14 07:35:12;;;;;;;;;;;7.00;96.10;;;;;;5077026;28;19924;-72
2022/11/14 07:37:39;;;;;;;;;;;7.00;96.10;;;;;;5082346;28;19932;-73
2022/11/14 07:40:06;;;;;;;;;;;7.00;96.20;;;;;;5077028;28;19928;-72
2022/11/14 07:42:32;;;;;;;;;;;7.00;96.20;;;;;;5079270;28;19932;-72
2022/11/14 07:44:59;;;;;;;;;;;7.00;96.20;;;;;;5080344;28;20453;-73
2022/11/14 07:47:27;;;;;;;;;;;7.00;96.20;;;;;;5075031;28;20576;-73
2022/11/14 07:49:54;;;;;;;;;;;6.90;96.20;;;;;;5076143;28;19943;-72
2022/11/14 07:52:20;;;;;;;;;;;7.00;96.30;;;;;;5082468;28;20388;-73
2022/11/14 07:54:47;;;;;;;;;;;7.00;96.30;;;;;;5073040;28;20707;-71
2022/11/14 07:57:14;;;;;;;;;;;7.00;96.30;;;;;;5069920;28;19939;-74
2022/11/14 07:59:40;;;;;;;;;;;6.90;96.20;;;;;;5070307;28;19928;-72
2022/11/14 08:02:10;;;;;;;;;;;6.90;96.20;;;;;;5073198;28;19928;-73
2022/11/14 08:04:38;;;;;;;;;;;6.90;96.20;;;;;;5075049;28;19928;-73
2022/11/14 08:07:05;;;;;;;;;;;6.90;96.20;;;;;;5075879;28;19932;-74
2022/11/14 08:09:31;;;;;;;;;;;7.00;96.20;;;;;;5069176;28;19939;-73
2022/11/14 08:11:58;;;;;;;;;;;7.00;96.20;;;;;;5075887;28;19928;-73
2022/11/14 08:14:25;;;;;;;;;;;6.90;96.20;;;;;;5074018;28;19924;-72
2022/11/14 08:16:51;;;;;;;;;;;7.00;96.20;;;;;;5074840;28;19964;-73
2022/11/14 08:19:18;;;;;;;;;;;7.00;96.20;;;;;;5075854;28;19928;-73
2022/11/14 08:21:46;;;;;;;;;;;7.00;96.20;;;;;;5075771;28;19932;-73
2022/11/14 08:24:12;;;;;;;;;;;7.00;96.20;;;;;;5075776;28;20423;-73
2022/11/14 08:26:39;;;;;;;;;;;6.90;96.20;;;;;;5074648;28;19987;-73
2022/11/14 08:29:06;;;;;;;;;;;6.90;96.10;;;;;;5075659;28;20012;-73
2022/11/14 08:31:32;;;;;;;;;;;7.00;96.10;;;;;;5077072;28;20420;-73
2022/11/14 08:33:59;;;;;;;;;;;7.00;96.10;;;;;;5078184;28;20300;-73
2022/11/14 08:36:26;;;;;;;;;;;7.00;96.10;;;;;;5077390;28;19928;-72
2022/11/14 08:38:54;;;;;;;;;;;7.00;96.20;;;;;;5076109;28;19939;-73
2022/11/14 08:41:20;;;;;;;;;;;6.90;96.10;;;;;;5079125;28;19928;-73
2022/11/14 08:43:47;;;;;;;;;;;7.00;96.20;;;;;;5074037;28;19955;-73
2022/11/14 08:46:14;;;;;;;;;;;7.00;96.20;;;;;;5069256;28;19928;-73
2022/11/14 08:48:40;;;;;;;;;;;7.00;96.20;;;;;;5066836;28;19929;-73
2022/11/14 08:51:07;;;;;;;;;;;7.00;96.20;;;;;;5073315;28;19932;-73
2022/11/14 08:53:34;;;;;;;;;;;7.00;96.20;;;;;;5071179;28;19928;-73
2022/11/14 08:56:01;;;;;;;;;;;7.00;96.20;;;;;;5068498;28;19935;-73
2022/11/14 08:58:29;;;;;;;;;;;7.00;96.20;;;;;;5069837;28;19940;-72
2022/11/14 09:00:59;;;;;;;;;;;7.00;96.20;;;;;;5070454;28;20664;-73
2022/11/14 09:03:25;;;;;;;;;;;7.00;96.20;;;;;;5056746;28;19933;-74
2022/11/14 09:05:52;;;;;;;;;;;7.00;96.20;;;;;;5060469;28;19932;-73
2022/11/14 09:08:19;;;;;;;;;;;7.00;96.20;;;;;;5061424;28;20527;-74
2022/11/14 09:10:45;;;;;;;;;;;7.00;96.20;;;;;;5060441;28;19932;-73
2022/11/14 09:13:13;;;;;;;;;;;7.00;96.20;;;;;;5059277;28;19933;-73
2022/11/14 09:15:40;;;;;;;;;;;7.00;96.20;;;;;;5059074;28;19928;-74
2022/11/14 09:18:07;;;;;;;;;;;7.00;96.20;;;;;;5077416;28;19933;-74
2022/11/14 09:20:33;;;;;;;;;;;7.00;96.20;;;;;;5071587;28;19935;-74
2022/11/14 09:23:00;;;;;;;;;;;7.00;96.20;;;;;;5073054;28;19929;-73
2022/11/14 09:25:26;;;;;;;;;;;7.00;96.20;;;;;;5077382;28;20431;-66
2022/11/14 09:27:53;;;;;;;;;;;7.00;96.20;;;;;;5083444;28;19935;-67
2022/11/14 09:30:21;;;;;;;;;;;7.00;96.20;;;;;;5082402;28;19939;-67
2022/11/14 09:32:48;;;;;;;;;;;7.10;96.20;;;;;;5077204;28;19928;-67
2022/11/14 09:35:15;;;;;;;;;;;7.00;96.10;;;;;;5079052;28;19935;-67
2022/11/14 09:37:41;;;;;;;;;;;7.00;96.10;;;;;;5071024;28;19932;-67
2022/11/14 09:40:10;;;;;;;;;;;7.10;96.10;;;;;;5079473;28;19955;-67
2022/11/14 09:42:48;;;;;;;;;;;7.10;96.10;;;;;;5082392;28;19935;-66
2022/11/14 09:45:16;;;;;;;;;;;7.10;96.10;;;;;;5074137;28;20699;-66
2022/11/14 09:47:44;;;;;;;;;;;7.10;96.10;;;;;;5074413;28;20563;-66
2022/11/14 09:50:13;;;;;;;;;;;7.10;96.10;;;;;;5074654;28;19928;-67
2022/11/14 09:52:44;;;;;;;;;;;7.10;96.10;;;;;;5077150;28;19939;-66
2022/11/14 09:55:12;;;;;;;;;;;7.20;96.10;;;;;;5082252;28;20399;-66
2022/11/14 09:57:40;;;;;;;;;;;7.20;96.10;;;;;;5074759;28;19971;-66
2022/11/14 10:00:17;;;;;;;;;;;7.20;96.10;;;;;;5073324;28;19924;-67
2022/11/14 10:02:55;;;;;;;;;;;7.20;96.10;;;;;;5074959;28;20319;-67
2022/11/14 10:05:24;;;;;;;;;;;7.20;96.10;;;;;;5084639;28;19947;-67
2022/11/14 10:08:00;;;;;;;;;;;7.20;96.00;;;;;;5082443;28;19928;-67
2022/11/14 10:10:32;;;;;;;;;;;7.20;96.00;;;;;;5079611;28;19932;-66
2022/11/14 10:13:03;;;;;;;;;;;7.20;96.00;;;;;;5084687;28;19928;-66
2022/11/14 10:15:31;;;;;;;;;;;7.20;96.00;;;;;;5077576;28;19928;-66
2022/11/14 10:18:08;;;;;;;;;;;7.30;96.10;;;;;;5081862;28;20439;-67
2022/11/14 10:20:39;;;;;;;;;;;7.30;96.10;;;;;;5081357;28;19935;-66
2022/11/14 10:23:12;;;;;;;;;;;7.30;96.10;;;;;;5078016;28;19928;-67
2022/11/14 10:25:43;;;;;;;;;;;7.30;96.00;;;;;;5078180;28;19924;-67
2022/11/14 10:28:24;;;;;;;;;;;7.30;96.00;;;;;;5083582;28;19928;-67
2022/11/14 10:30:55;;;;;;;;;;;7.30;96.00;;;;;;5075959;28;19928;-67
2022/11/14 10:33:27;;;;;;;;;;;7.30;96.00;;;;;;5073322;28;19928;-66
2022/11/14 10:35:56;;;;;;;;;;;7.30;96.00;;;;;;5070219;28;19928;-66
2022/11/14 10:38:27;;;;;;;;;;;7.30;96.00;;;;;;5078943;28;19932;-67
2022/11/14 10:40:55;;;;;;;;;;;7.30;95.90;;;;;;5081027;28;19931;-66
2022/11/14 10:43:25;;;;;;;;;;;7.40;95.90;;;;;;5077332;28;19934;-67
2022/11/14 10:45:53;;;;;;;;;;;7.40;95.90;;;;;;5077453;28;19934;-67
2022/11/14 10:48:24;;;;;;;;;;;7.40;95.80;;;;;;5070858;28;19935;-67
2022/11/14 10:50:55;;;;;;;;;;;7.40;95.80;;;;;;5079885;28;19939;-67
2022/11/14 10:53:25;;;;;;;;;;;7.40;95.70;;;;;;5080680;28;19935;-68
2022/11/14 10:55:53;;;;;;;;;;;7.40;95.70;;;;;;5077085;28;19929;-66
2022/11/14 10:58:20;;;;;;;;;;;7.40;95.70;;;;;;5074078;28;20015;-67
2022/11/14 11:00:47;;;;;;;;;;;7.40;95.70;;;;;;5076722;28;19928;-67
2022/11/14 11:03:14;;;;;;;;;;;7.40;95.70;;;;;;5079246;28;19927;-67
2022/11/14 11:05:46;;;;;;;;;;;7.40;95.60;;;;;;5075439;28;19928;-67
2022/11/14 11:13:54;;;;;;;;;;;7.50;95.60;;;;;;5069611;28;20434;-67
2022/11/14 11:16:21;;;;;;;;;;;7.50;95.60;;;;;;5083350;28;20028;-67
2022/11/14 11:18:48;;;;;;;;;;;7.50;95.60;;;;;;5081981;28;19928;-67
2022/11/14 11:21:15;;;;;;;;;;;7.50;95.60;;;;;;5081787;28;19935;-66
2022/11/14 11:23:49;;;;;;;;;;;7.50;95.60;;;;;;5081015;28;20490;-66
2022/11/14 11:26:17;;;;;;;;;;;7.50;95.50;;;;;;5084379;28;19932;-67
2022/11/14 11:29:00;;;;;;;;;;;7.50;95.60;;;;;;5080487;28;20356;-67
2022/11/14 11:31:26;;;;;;;;;;;7.50;95.50;;;;;;5080745;28;19943;-66
2022/11/14 11:33:53;;;;;;;;;;;7.60;95.50;;;;;;5079788;28;19932;-67
2022/11/14 11:36:22;;;;;;;;;;;7.60;95.50;;;;;;5083392;28;20005;-67
2022/11/14 11:38:49;;;;;;;;;;;7.60;95.60;;;;;;5083202;28;20277;-67
2022/11/14 11:41:19;;;;;;;;;;;7.60;95.60;;;;;;5082200;28;19928;-67
2022/11/14 11:43:48;;;;;;;;;;;7.60;95.70;;;;;;5080780;28;19939;-67
2022/11/14 11:46:16;;;;;;;;;;;7.60;95.70;;;;;;5081025;28;20578;-67
2022/11/14 11:48:46;;;;;;;;;;;7.60;95.70;;;;;;5074852;28;19935;-67
2022/11/14 11:51:15;;;;;;;;;;;7.60;95.70;;;;;;5082727;28;19928;-67
2022/11/14 11:53:43;;;;;;;;;;;7.60;95.70;;;;;;5082344;28;19951;-66
2022/11/14 11:56:14;;;;;;;;;;;7.60;95.70;;;;;;5078379;28;19939;-67
2022/11/14 11:58:44;;;;;;;;;;;7.60;95.70;;;;;;5082000;28;19935;-67
2022/11/14 12:01:11;;;;;;;;;;;7.60;95.70;;;;;;5082421;28;19928;-67
2022/11/14 12:03:38;;;;;;;;;;;7.60;95.70;;;;;;5075945;28;20463;-67
2022/11/14 12:06:11;;;;;;;;;;;7.60;95.70;;;;;;5076446;28;20408;-67
2022/11/14 12:08:42;;;;;;;;;;;7.60;95.80;;;;;;5076576;28;19931;-67
2022/11/14 12:11:11;;;;;;;;;;;7.70;95.80;;;;;;5081286;28;19935;-67
2022/11/14 12:13:49;;;;;;;;;;;7.70;95.90;;;;;;5074673;28;20444;-66
2022/11/14 12:16:23;;;;;;;;;;;7.70;95.90;;;;;;5082912;28;19936;-67
2022/11/14 12:18:58;;;;;;;;;;;7.70;95.90;;;;;;5078461;28;19928;-67
2022/11/14 12:21:33;;;;;;;;;;;7.70;95.90;;;;;;5077488;28;19924;-67
2022/11/14 12:24:23;;;;;;;;;;;7.70;95.90;;;;;;5080064;28;19928;-67
2022/11/14 12:27:05;;;;;;;;;;;7.80;95.90;;;;;;5071952;28;19931;-67
2022/11/14 12:29:44;;;;;;;;;;;7.70;95.90;;;;;;5079351;28;19958;-66
2022/11/14 12:32:13;;;;;;;;;;;7.70;95.90;;;;;;5076692;28;19928;-67
2022/11/14 12:34:41;;;;;;;;;;;7.80;95.90;;;;;;5077205;28;20075;-67
2022/11/14 12:37:08;;;;;;;;;;;7.80;96.20;;;;;;5078771;28;20019;-66
2022/11/14 12:39:36;;;;;;;;;;;7.80;95.90;;;;;;5071688;28;20502;-76
2022/11/14 12:42:03;;;;;;;;;;;7.80;95.80;;;;;;5072409;28;19938;-75
2022/11/14 12:44:34;;;;;;;;;;;7.80;95.90;;;;;;5079382;28;19928;-75
2022/11/14 12:47:16;;;;;;;;;;;7.80;95.90;;;;;;5079438;28;19928;-75
2022/11/14 12:50:27;;;;;;;;;;;7.90;95.90;;;;;;5074349;28;19932;-75
2022/11/14 12:52:54;;;;;;;;;;;7.90;95.80;;;;;;5087245;28;19928;-75
2022/11/14 12:55:38;;;;;;;;;;;7.90;95.70;;;;;;5078812;28;19928;-75
2022/11/14 12:58:06;;;;;;;;;;;8.00;95.80;;;;;;5081485;28;19928;-75
2022/11/14 13:00:33;;;;;;;;;;;8.00;95.80;;;;;;5077682;28;19932;-75
2022/11/14 13:03:07;;;;;;;;;;;8.00;95.80;;;;;;5078685;28;19934;-75
2022/11/14 13:05:46;;;;;;;;;;;8.10;95.80;;;;;;5083171;28;19928;-75
2022/11/14 13:08:21;;;;;;;;;;;8.10;95.80;;;;;;5082885;28;19985;-75
2022/11/14 13:10:48;;;;;;;;;;;8.10;95.90;;;;;;5080878;28;19924;-74
2022/11/14 13:21:46;;;;;;;;;;;8.10;95.80;;;;;;5083963;28;20052;-66
2022/11/14 13:24:14;;;;;;;;;;;8.20;95.90;;;;;;5081292;28;19978;-66
2022/11/14 13:26:45;;;;;;;;;;;8.20;95.80;;;;;;5082263;28;20441;-66
2022/11/14 13:29:31;;;;;;;;;;;8.20;95.80;;;;;;5083962;28;20285;-66
2022/11/14 13:31:58;;;;;;;;;;;8.20;95.80;;;;;;5081406;28;19929;-67
2022/11/14 13:34:29;;;;;;;;;;;8.20;95.90;;;;;;5081654;28;19936;-67
2022/11/14 13:37:00;;;;;;;;;;;8.20;95.90;;;;;;5079745;28;19928;-67
2022/11/14 13:39:31;;;;;;;;;;;8.20;96.00;;;;;;5083932;28;20450;-66
2022/11/14 13:42:15;;;;;;;;;;;8.20;96.00;;;;;;5078833;28;19928;-66
2022/11/14 13:45:15;;;;;;;;;;;8.20;96.00;;;;;;5081459;28;19932;-67
2022/11/14 13:48:02;;;;;;;;;;;8.20;96.00;;;;;;5053714;28;19943;-67
2022/11/14 13:50:30;;;;;;;;;;;8.30;96.00;;;;;;5061573;28;19932;-67
2022/11/14 13:52:58;;;;;;;;;;;8.30;96.00;;;;;;5065180;28;20379;-66
2022/11/14 13:55:32;;;;;;;;;;;8.30;96.10;;;;;;5062753;28;19929;-67
2022/11/14 13:58:06;;;;;;;;;;;8.30;96.10;;;;;;5057628;28;20669;-66
2022/11/14 14:00:46;;;;;;;;;;;8.30;96.10;;;;;;5062041;28;19939;-66
2022/11/14 14:03:19;;;;;;;;;;;8.30;96.10;;;;;;5055926;28;19935;-66
2022/11/14 14:05:54;;;;;;;;;;;8.30;96.10;;;;;;5059898;28;21614;-66
2022/11/14 14:08:31;;;;;;;;;;;8.40;96.10;;;;;;5058492;28;19936;-68
2022/11/14 14:11:05;;;;;;;;;;;8.40;96.10;;;;;;5056217;28;19929;-75
2022/11/14 14:13:39;;;;;;;;;;;8.40;96.00;;;;;;5054815;28;19932;-73
2022/11/14 14:16:09;;;;;;;;;;;8.40;96.00;;;;;;5054586;28;19933;-74
2022/11/14 14:18:43;;;;;;;;;;;8.40;96.00;;;;;;5055122;28;19928;-74
2022/11/14 14:21:16;;;;;;;;;;;8.40;96.00;;;;;;5053605;28;19953;-73
2022/11/14 14:23:47;;;;;;;;;;;8.40;96.00;;;;;;5055170;28;19928;-73
2022/11/14 14:26:19;;;;;;;;;;;8.40;95.90;;;;;;5051780;28;19939;-74
2022/11/14 14:28:52;;;;;;;;;;;8.40;95.90;;;;;;5056909;28;19954;-74
2022/11/14 14:31:22;;;;;;;;;;;8.40;95.90;;;;;;5055603;28;19932;-74
2022/11/14 14:33:50;;;;;;;;;;;8.50;95.90;;;;;;5053253;28;19937;-74
2022/11/14 14:36:21;;;;;;;;;;;8.50;95.90;;;;;;5055412;28;20412;-74
2022/11/14 14:38:49;;;;;;;;;;;8.50;95.80;;;;;;5056130;28;20444;-74
2022/11/14 14:41:17;;;;;;;;;;;8.50;95.80;;;;;;5057010;28;19954;-74
2022/11/14 14:43:49;;;;;;;;;;;8.50;95.80;;;;;;5057405;28;20360;-76
2022/11/14 14:46:16;;;;;;;;;;;8.60;97.00;;;;;;5052756;28;19929;-76
2022/11/14 14:48:43;;;;;;;;;;;8.80;97.80;;;;;;5062273;28;19928;-75
2022/11/14 14:51:13;;;;;;;;;;;9.30;96.90;;;;;;5054673;28;20470;-74
2022/11/14 14:53:50;;;;;;;;;;;9.40;96.20;;;;;;5057048;28;19932;-75